sensor_id;sensor_type;location;lat;lon;timestamp;pressure;altitude;pressure_sealevel;temperature;humidity
26083;BME280;13848;49.018;12.078;2024-01-10T00:01:19;98536.22;;;-5.09;57.89
26083;BME280;13848;49.018;12.078;2024-01-10T00:03:45;98535.44;;;-5.23;57.68
26083;BME280;13848;49.018;12.078;2024-01-10T00:06:11;98528.88;;;-5.03;58.05
26083;BME280;13848;49.018;12.078;2024-01-10T00:08:38;98531.28;;;-5.13;57.81
26083;BME280;13848;49.018;12.078;2024-01-10T00:11:04;98537.06;;;-5.21;58.31
26083;BME280;13848;49.018;12.078;2024-01-10T00:13:31;98524.00;;;-5.22;58.35
26083;BME280;13848;49.018;12.078;2024-01-10T00:15:57;98530.72;;;-5.18;58.50
26083;BME280;13848;49.018;12.078;2024-01-10T00:18:23;98523.69;;;-5.18;58.62
26083;BME280;13848;49.018;12.078;2024-01-10T00:20:49;98513.19;;;-5.18;58.12
26083;BME280;13848;49.018;12.078;2024-01-10T00:23:15;98517.28;;;-5.26;59.36
26083;BME280;13848;49.018;12.078;2024-01-10T00:25:43;98525.66;;;-5.34;59.33
26083;BME280;13848;49.018;12.078;2024-01-10T00:28:09;98509.63;;;-3.56;59.82
26083;BME280;13848;49.018;12.078;2024-01-10T00:30:34;98520.25;;;-4.67;57.90
26083;BME280;13848;49.018;12.078;2024-01-10T00:33:00;98525.06;;;-4.99;58.77
26083;BME280;13848;49.018;12.078;2024-01-10T00:35:26;98522.53;;;-5.14;59.00
26083;BME280;13848;49.018;12.078;2024-01-10T00:37:52;98523.28;;;-5.12;59.28
26083;BME280;13848;49.018;12.078;2024-01-10T00:40:18;98528.34;;;-5.09;58.67
26083;BME280;13848;49.018;12.078;2024-01-10T00:42:45;98525.06;;;-5.12;59.18
26083;BME280;13848;49.018;12.078;2024-01-10T00:45:11;98522.75;;;-5.17;58.50
26083;BME280;13848;49.018;12.078;2024-01-10T00:47:37;98522.22;;;-5.22;58.24
26083;BME280;13848;49.018;12.078;2024-01-10T00:50:04;98522.97;;;-5.20;58.60
26083;BME280;13848;49.018;12.078;2024-01-10T00:52:30;98531.97;;;-5.37;59.21
26083;BME280;13848;49.018;12.078;2024-01-10T00:54:56;98532.53;;;-5.19;59.04
26083;BME280;13848;49.018;12.078;2024-01-10T00:57:22;98529.47;;;-5.13;58.87
26083;BME280;13848;49.018;12.078;2024-01-10T00:59:49;98530.94;;;-5.21;59.12
26083;BME280;13848;49.018;12.078;2024-01-10T01:02:15;98533.22;;;-5.29;59.37
26083;BME280;13848;49.018;12.078;2024-01-10T01:04:41;98536.09;;;-5.20;59.37
26083;BME280;13848;49.018;12.078;2024-01-10T01:07:07;98532.59;;;-5.33;58.96
26083;BME280;13848;49.018;12.078;2024-01-10T01:09:33;98535.75;;;-5.28;58.87
26083;BME280;13848;49.018;12.078;2024-01-10T01:11:59;98536.91;;;-5.32;59.01
26083;BME280;13848;49.018;12.078;2024-01-10T01:14:25;98537.66;;;-5.17;59.62
26083;BME280;13848;49.018;12.078;2024-01-10T01:16:52;98549.09;;;-5.31;59.92
26083;BME280;13848;49.018;12.078;2024-01-10T01:19:18;98544.81;;;-5.32;59.90
26083;BME280;13848;49.018;12.078;2024-01-10T01:21:44;98550.59;;;-5.27;59.19
26083;BME280;13848;49.018;12.078;2024-01-10T01:24:10;98548.41;;;-5.20;59.25
26083;BME280;13848;49.018;12.078;2024-01-10T01:26:36;98552.47;;;-5.29;59.69
26083;BME280;13848;49.018;12.078;2024-01-10T01:29:02;98555.50;;;-5.35;59.48
26083;BME280;13848;49.018;12.078;2024-01-10T01:31:29;98549.06;;;-5.44;59.46
26083;BME280;13848;49.018;12.078;2024-01-10T01:33:56;98552.16;;;-5.37;59.36
26083;BME280;13848;49.018;12.078;2024-01-10T01:36:22;98554.03;;;-5.39;59.30
26083;BME280;13848;49.018;12.078;2024-01-10T01:38:48;98551.06;;;-5.47;60.08
26083;BME280;13848;49.018;12.078;2024-01-10T01:41:14;98554.34;;;-5.44;59.61
26083;BME280;13848;49.018;12.078;2024-01-10T01:43:40;98551.78;;;-5.45;60.38
26083;BME280;13848;49.018;12.078;2024-01-10T01:46:07;98547.50;;;-5.33;59.86
26083;BME280;13848;49.018;12.078;2024-01-10T01:48:34;98540.50;;;-5.33;59.93
26083;BME280;13848;49.018;12.078;2024-01-10T01:51:05;98540.56;;;-5.35;59.88
26083;BME280;13848;49.018;12.078;2024-01-10T01:53:31;98552.16;;;-5.37;59.25
26083;BME280;13848;49.018;12.078;2024-01-10T01:56:00;98548.56;;;-5.36;59.80
26083;BME280;13848;49.018;12.078;2024-01-10T01:58:27;98550.66;;;-5.41;59.61
26083;BME280;13848;49.018;12.078;2024-01-10T02:00:53;98546.66;;;-5.34;59.34
26083;BME280;13848;49.018;12.078;2024-01-10T02:03:20;98551.31;;;-5.38;60.01
26083;BME280;13848;49.018;12.078;2024-01-10T02:05:47;98551.09;;;-5.35;59.81
26083;BME280;13848;49.018;12.078;2024-01-10T02:08:14;98552.31;;;-5.40;59.61
26083;BME280;13848;49.018;12.078;2024-01-10T02:10:40;98547.63;;;-5.35;60.13
26083;BME280;13848;49.018;12.078;2024-01-10T02:13:06;98536.34;;;-5.50;60.40
26083;BME280;13848;49.018;12.078;2024-01-10T02:15:32;98543.72;;;-5.42;60.37
26083;BME280;13848;49.018;12.078;2024-01-10T02:17:58;98535.00;;;-5.43;59.80
26083;BME280;13848;49.018;12.078;2024-01-10T02:20:24;98541.78;;;-5.53;60.35
26083;BME280;13848;49.018;12.078;2024-01-10T02:22:50;98546.44;;;-5.44;60.20
26083;BME280;13848;49.018;12.078;2024-01-10T02:25:17;98533.03;;;-5.39;60.98
26083;BME280;13848;49.018;12.078;2024-01-10T02:27:43;98544.81;;;-5.59;60.36
26083;BME280;13848;49.018;12.078;2024-01-10T02:30:10;98542.84;;;-5.55;60.13
26083;BME280;13848;49.018;12.078;2024-01-10T02:32:36;98542.22;;;-5.46;61.69
26083;BME280;13848;49.018;12.078;2024-01-10T02:35:02;98543.06;;;-5.46;60.85
26083;BME280;13848;49.018;12.078;2024-01-10T02:37:28;98535.75;;;-5.68;61.53
26083;BME280;13848;49.018;12.078;2024-01-10T02:39:54;98538.63;;;-5.58;61.12
26083;BME280;13848;49.018;12.078;2024-01-10T02:42:21;98543.47;;;-5.52;60.88
26083;BME280;13848;49.018;12.078;2024-01-10T02:44:47;98524.63;;;-5.58;60.48
26083;BME280;13848;49.018;12.078;2024-01-10T02:47:13;98537.81;;;-5.46;61.54
26083;BME280;13848;49.018;12.078;2024-01-10T02:49:39;98539.25;;;-5.54;60.74
26083;BME280;13848;49.018;12.078;2024-01-10T02:52:05;98543.38;;;-5.50;60.86
26083;BME280;13848;49.018;12.078;2024-01-10T02:54:31;98542.97;;;-5.44;61.08
26083;BME280;13848;49.018;12.078;2024-01-10T02:56:57;98542.97;;;-5.44;59.94
26083;BME280;13848;49.018;12.078;2024-01-10T02:59:25;98540.00;;;-5.52;60.56
26083;BME280;13848;49.018;12.078;2024-01-10T03:01:50;98536.28;;;-5.63;61.51
26083;BME280;13848;49.018;12.078;2024-01-10T03:04:16;98537.44;;;-5.67;60.79
26083;BME280;13848;49.018;12.078;2024-01-10T03:06:42;98534.81;;;-5.67;61.70
26083;BME280;13848;49.018;12.078;2024-01-10T03:09:08;98532.53;;;-5.58;61.35
26083;BME280;13848;49.018;12.078;2024-01-10T03:11:34;98524.50;;;-5.70;61.71
26083;BME280;13848;49.018;12.078;2024-01-10T03:14:01;98527.13;;;-5.70;62.22
26083;BME280;13848;49.018;12.078;2024-01-10T03:16:29;98535.00;;;-5.70;62.06
26083;BME280;13848;49.018;12.078;2024-01-10T03:18:55;98531.44;;;-5.69;62.02
26083;BME280;13848;49.018;12.078;2024-01-10T03:21:21;98528.03;;;-5.56;61.88
26083;BME280;13848;49.018;12.078;2024-01-10T03:23:47;98529.69;;;-5.82;62.44
26083;BME280;13848;49.018;12.078;2024-01-10T03:26:12;98526.97;;;-5.81;61.52
26083;BME280;13848;49.018;12.078;2024-01-10T03:28:38;98526.53;;;-5.60;61.63
26083;BME280;13848;49.018;12.078;2024-01-10T03:31:04;98532.97;;;-5.52;61.43
26083;BME280;13848;49.018;12.078;2024-01-10T03:33:32;98529.34;;;-5.64;61.51
26083;BME280;13848;49.018;12.078;2024-01-10T03:35:58;98527.03;;;-5.68;61.28
26083;BME280;13848;49.018;12.078;2024-01-10T03:38:24;98524.09;;;-5.64;61.34
26083;BME280;13848;49.018;12.078;2024-01-10T03:40:50;98531.44;;;-5.69;62.18
26083;BME280;13848;49.018;12.078;2024-01-10T03:43:16;98535.44;;;-5.63;62.23
26083;BME280;13848;49.018;12.078;2024-01-10T03:45:42;98529.72;;;-5.55;62.34
26083;BME280;13848;49.018;12.078;2024-01-10T03:48:08;98533.78;;;-5.51;61.83
26083;BME280;13848;49.018;12.078;2024-01-10T03:50:35;98528.19;;;-5.32;61.62
26083;BME280;13848;49.018;12.078;2024-01-10T03:53:01;98525.63;;;-5.47;61.20
26083;BME280;13848;49.018;12.078;2024-01-10T03:55:27;98523.53;;;-5.42;61.53
26083;BME280;13848;49.018;12.078;2024-01-10T03:57:53;98530.03;;;-5.47;62.02
26083;BME280;13848;49.018;12.078;2024-01-10T04:00:19;98530.03;;;-5.47;62.27
26083;BME280;13848;49.018;12.078;2024-01-10T04:02:45;98521.59;;;-5.52;61.20
26083;BME280;13848;49.018;12.078;2024-01-10T04:05:11;98530.94;;;-5.61;61.83
26083;BME280;13848;49.018;12.078;2024-01-10T04:07:39;98535.84;;;-5.69;62.32
26083;BME280;13848;49.018;12.078;2024-01-10T04:10:06;98528.63;;;-5.66;62.38
26083;BME280;13848;49.018;12.078;2024-01-10T04:12:32;98534.81;;;-5.67;62.90
26083;BME280;13848;49.018;12.078;2024-01-10T04:14:58;98534.06;;;-5.69;62.50
26083;BME280;13848;49.018;12.078;2024-01-10T04:17:24;98523.75;;;-5.72;62.41
26083;BME280;13848;49.018;12.078;2024-01-10T04:19:50;98531.78;;;-5.60;62.65
26083;BME280;13848;49.018;12.078;2024-01-10T04:22:16;98536.69;;;-5.69;62.61
26083;BME280;13848;49.018;12.078;2024-01-10T04:24:43;98535.84;;;-5.69;62.78
26083;BME280;13848;49.018;12.078;2024-01-10T04:27:09;98547.94;;;-5.94;62.59
26083;BME280;13848;49.018;12.078;2024-01-10T04:29:35;98541.03;;;-5.95;63.01
26083;BME280;13848;49.018;12.078;2024-01-10T04:32:01;98531.38;;;-5.81;63.37
26083;BME280;13848;49.018;12.078;2024-01-10T04:34:27;98537.97;;;-5.89;63.20
26083;BME280;13848;49.018;12.078;2024-01-10T04:36:53;98537.47;;;-5.81;63.48
26083;BME280;13848;49.018;12.078;2024-01-10T04:39:19;98549.00;;;-5.96;64.00
26083;BME280;13848;49.018;12.078;2024-01-10T04:41:46;98549.97;;;-5.84;63.46
26083;BME280;13848;49.018;12.078;2024-01-10T04:44:12;98543.81;;;-5.71;63.01
26083;BME280;13848;49.018;12.078;2024-01-10T04:46:38;98540.66;;;-5.76;63.30
26083;BME280;13848;49.018;12.078;2024-01-10T04:49:04;98550.97;;;-5.73;63.39
26083;BME280;13848;49.018;12.078;2024-01-10T04:51:30;98544.88;;;-5.73;63.28
26083;BME280;13848;49.018;12.078;2024-01-10T04:53:56;98556.22;;;-5.73;62.87
26083;BME280;13848;49.018;12.078;2024-01-10T04:56:21;98557.53;;;-5.80;63.56
26083;BME280;13848;49.018;12.078;2024-01-10T04:58:49;98559.91;;;-5.90;64.18
26083;BME280;13848;49.018;12.078;2024-01-10T05:01:15;98552.28;;;-5.80;63.28
26083;BME280;13848;49.018;12.078;2024-01-10T05:03:41;98549.88;;;-5.83;63.64
26083;BME280;13848;49.018;12.078;2024-01-10T05:06:07;98553.84;;;-5.90;63.99
26083;BME280;13848;49.018;12.078;2024-01-10T05:08:33;98552.38;;;-5.81;63.70
26083;BME280;13848;49.018;12.078;2024-01-10T05:10:59;98557.78;;;-5.97;63.56
26083;BME280;13848;49.018;12.078;2024-01-10T05:13:24;98562.69;;;-5.91;63.68
26083;BME280;13848;49.018;12.078;2024-01-10T05:15:52;98561.59;;;-5.89;63.89
26083;BME280;13848;49.018;12.078;2024-01-10T05:18:18;98560.34;;;-5.96;64.01
26083;BME280;13848;49.018;12.078;2024-01-10T05:20:44;98560.97;;;-5.92;64.32
26083;BME280;13848;49.018;12.078;2024-01-10T05:23:10;98558.00;;;-6.00;63.99
26083;BME280;13848;49.018;12.078;2024-01-10T05:25:36;98557.63;;;-5.94;63.76
26083;BME280;13848;49.018;12.078;2024-01-10T05:28:02;98553.88;;;-6.04;64.35
26083;BME280;13848;49.018;12.078;2024-01-10T05:30:29;98547.06;;;-6.07;64.48
26083;BME280;13848;49.018;12.078;2024-01-10T05:32:57;98555.22;;;-6.11;63.89
26083;BME280;13848;49.018;12.078;2024-01-10T05:35:23;98556.31;;;-6.01;63.13
26083;BME280;13848;49.018;12.078;2024-01-10T05:37:49;98559.34;;;-6.07;63.46
26083;BME280;13848;49.018;12.078;2024-01-10T05:40:15;98560.25;;;-5.94;63.45
26083;BME280;13848;49.018;12.078;2024-01-10T05:42:41;98556.88;;;-5.96;64.26
26083;BME280;13848;49.018;12.078;2024-01-10T05:45:07;98562.50;;;-6.02;63.59
26083;BME280;13848;49.018;12.078;2024-01-10T05:47:33;98559.88;;;-6.02;63.72
26083;BME280;13848;49.018;12.078;2024-01-10T05:50:00;98567.84;;;-6.04;64.18
26083;BME280;13848;49.018;12.078;2024-01-10T05:52:26;98563.63;;;-6.21;64.82
26083;BME280;13848;49.018;12.078;2024-01-10T05:54:52;98560.66;;;-6.14;63.78
26083;BME280;13848;49.018;12.078;2024-01-10T05:57:18;98564.75;;;-6.10;64.43
26083;BME280;13848;49.018;12.078;2024-01-10T05:59:44;98564.59;;;-6.07;64.12
26083;BME280;13848;49.018;12.078;2024-01-10T06:02:10;98567.38;;;-6.10;64.24
26083;BME280;13848;49.018;12.078;2024-01-10T06:04:36;98562.69;;;-6.05;63.60
26083;BME280;13848;49.018;12.078;2024-01-10T06:07:04;98557.44;;;-6.05;64.37
26083;BME280;13848;49.018;12.078;2024-01-10T06:09:29;98557.63;;;-5.94;63.83
26083;BME280;13848;49.018;12.078;2024-01-10T06:11:55;98559.63;;;-6.12;63.66
26083;BME280;13848;49.018;12.078;2024-01-10T06:14:21;98558.94;;;-6.16;64.04
26083;BME280;13848;49.018;12.078;2024-01-10T06:16:47;98561.13;;;-6.22;64.32
26083;BME280;13848;49.018;12.078;2024-01-10T06:19:13;98569.28;;;-6.12;63.88
26083;BME280;13848;49.018;12.078;2024-01-10T06:21:39;98558.13;;;-6.16;63.62
26083;BME280;13848;49.018;12.078;2024-01-10T06:24:06;98561.50;;;-6.14;63.86
26083;BME280;13848;49.018;12.078;2024-01-10T06:26:32;98566.66;;;-6.12;64.19
26083;BME280;13848;49.018;12.078;2024-01-10T06:28:58;98566.75;;;-6.14;64.71
26083;BME280;13848;49.018;12.078;2024-01-10T06:31:24;98572.47;;;-6.36;64.56
26083;BME280;13848;49.018;12.078;2024-01-10T06:33:50;98571.44;;;-6.33;64.27
26083;BME280;13848;49.018;12.078;2024-01-10T06:36:16;98567.97;;;-6.20;64.85
26083;BME280;13848;49.018;12.078;2024-01-10T06:38:42;98582.94;;;-6.22;64.04
26083;BME280;13848;49.018;12.078;2024-01-10T06:41:09;98573.56;;;-6.11;64.28
26083;BME280;13848;49.018;12.078;2024-01-10T06:43:36;98574.13;;;-6.21;63.71
26083;BME280;13848;49.018;12.078;2024-01-10T06:46:02;98576.59;;;-6.18;63.55
26083;BME280;13848;49.018;12.078;2024-01-10T06:48:27;98585.97;;;-6.28;64.01
26083;BME280;13848;49.018;12.078;2024-01-10T06:50:53;98582.22;;;-6.24;64.23
26083;BME280;13848;49.018;12.078;2024-01-10T06:53:19;98586.91;;;-6.14;64.37
26083;BME280;13848;49.018;12.078;2024-01-10T06:55:45;98586.53;;;-6.23;65.13
26083;BME280;13848;49.018;12.078;2024-01-10T06:58:12;98588.41;;;-6.25;64.26
26083;BME280;13848;49.018;12.078;2024-01-10T07:00:38;98591.88;;;-6.24;64.87
26083;BME280;13848;49.018;12.078;2024-01-10T07:03:05;98594.22;;;-6.20;64.14
26083;BME280;13848;49.018;12.078;2024-01-10T07:05:31;98590.44;;;-6.16;64.11
26083;BME280;13848;49.018;12.078;2024-01-10T07:07:57;98600.56;;;-6.09;65.14
26083;BME280;13848;49.018;12.078;2024-01-10T07:10:23;98588.38;;;-6.10;63.58
26083;BME280;13848;49.018;12.078;2024-01-10T07:12:48;98599.25;;;-6.17;65.02
26083;BME280;13848;49.018;12.078;2024-01-10T07:15:16;98590.78;;;-5.93;65.20
26083;BME280;13848;49.018;12.078;2024-01-10T07:17:42;98594.47;;;-5.69;65.74
26083;BME280;13848;49.018;12.078;2024-01-10T07:20:08;98594.84;;;-5.75;64.63
26083;BME280;13848;49.018;12.078;2024-01-10T07:22:34;98591.56;;;-5.91;64.36
26083;BME280;13848;49.018;12.078;2024-01-10T07:25:00;98594.50;;;-5.83;64.79
26083;BME280;13848;49.018;12.078;2024-01-10T07:27:26;98583.44;;;-5.88;65.10
26083;BME280;13848;49.018;12.078;2024-01-10T07:29:52;98586.91;;;-5.88;64.77
26083;BME280;13848;49.018;12.078;2024-01-10T07:32:20;98589.75;;;-5.91;65.21
26083;BME280;13848;49.018;12.078;2024-01-10T07:34:45;98585.94;;;-5.99;65.46
26083;BME280;13848;49.018;12.078;2024-01-10T07:37:13;98585.34;;;-5.90;65.92
26083;BME280;13848;49.018;12.078;2024-01-10T07:39:39;98588.94;;;-5.91;64.51
26083;BME280;13848;49.018;12.078;2024-01-10T07:42:05;98600.03;;;-5.73;65.21
26083;BME280;13848;49.018;12.078;2024-01-10T07:44:31;98596.19;;;-5.82;65.02
26083;BME280;13848;49.018;12.078;2024-01-10T07:46:57;98605.19;;;-5.72;65.20
26083;BME280;13848;49.018;12.078;2024-01-10T07:49:24;98602.66;;;-5.46;64.29
26083;BME280;13848;49.018;12.078;2024-01-10T07:51:50;98613.38;;;-5.49;64.48
26083;BME280;13848;49.018;12.078;2024-01-10T07:54:16;98620.41;;;-5.50;64.28
26083;BME280;13848;49.018;12.078;2024-01-10T07:56:42;98614.09;;;-5.47;64.18
26083;BME280;13848;49.018;12.078;2024-01-10T07:59:08;98608.75;;;-5.19;63.64
26083;BME280;13848;49.018;12.078;2024-01-10T08:01:34;98608.63;;;-4.90;63.36
26083;BME280;13848;49.018;12.078;2024-01-10T08:03:59;98603.59;;;-4.55;62.71
26083;BME280;13848;49.018;12.078;2024-01-10T08:06:27;98608.44;;;-4.62;61.63
26083;BME280;13848;49.018;12.078;2024-01-10T08:08:53;98612.03;;;-4.37;61.82
26083;BME280;13848;49.018;12.078;2024-01-10T08:11:19;98608.34;;;-4.09;61.02
26083;BME280;13848;49.018;12.078;2024-01-10T08:13:44;98603.66;;;-3.80;59.74
26083;BME280;13848;49.018;12.078;2024-01-10T08:16:10;98610.16;;;-3.73;59.22
26083;BME280;13848;49.018;12.078;2024-01-10T08:18:36;98614.78;;;-3.64;58.93
26083;BME280;13848;49.018;12.078;2024-01-10T08:21:03;98617.88;;;-3.22;58.91
26083;BME280;13848;49.018;12.078;2024-01-10T08:23:30;98619.66;;;-2.99;57.19
26083;BME280;13848;49.018;12.078;2024-01-10T08:25:56;98624.50;;;-2.92;56.61
26083;BME280;13848;49.018;12.078;2024-01-10T08:28:22;98630.38;;;-2.54;55.69
26083;BME280;13848;49.018;12.078;2024-01-10T08:30:48;98640.66;;;-2.16;55.51
26083;BME280;13848;49.018;12.078;2024-01-10T08:33:14;98635.72;;;-1.98;53.93
26083;BME280;13848;49.018;12.078;2024-01-10T08:35:40;98640.53;;;-1.47;54.91
26083;BME280;13848;49.018;12.078;2024-01-10T08:38:06;98638.22;;;-1.40;53.93
26083;BME280;13848;49.018;12.078;2024-01-10T08:40:33;98627.34;;;-1.15;53.01
26083;BME280;13848;49.018;12.078;2024-01-10T08:42:59;98637.19;;;-1.05;53.61
26083;BME280;13848;49.018;12.078;2024-01-10T08:45:25;98636.88;;;-0.59;50.16
26083;BME280;13848;49.018;12.078;2024-01-10T08:47:51;98638.13;;;-0.63;51.16
26083;BME280;13848;49.018;12.078;2024-01-10T08:50:17;98644.56;;;-0.88;50.20
26083;BME280;13848;49.018;12.078;2024-01-10T08:52:43;98636.16;;;-0.61;51.89
26083;BME280;13848;49.018;12.078;2024-01-10T08:55:08;98640.19;;;-0.46;50.17
26083;BME280;13848;49.018;12.078;2024-01-10T08:57:36;98648.31;;;-0.38;50.33
26083;BME280;13848;49.018;12.078;2024-01-10T09:00:02;98648.28;;;0.04;49.29
26083;BME280;13848;49.018;12.078;2024-01-10T09:02:28;98653.25;;;0.49;47.66
26083;BME280;13848;49.018;12.078;2024-01-10T09:04:54;98647.94;;;1.18;46.66
26083;BME280;13848;49.018;12.078;2024-01-10T09:07:20;98654.41;;;0.66;46.61
26083;BME280;13848;49.018;12.078;2024-01-10T09:09:46;98651.19;;;1.51;45.86
26083;BME280;13848;49.018;12.078;2024-01-10T09:12:12;98650.31;;;1.12;45.43
26083;BME280;13848;49.018;12.078;2024-01-10T09:14:39;98649.34;;;1.42;45.75
26083;BME280;13848;49.018;12.078;2024-01-10T09:17:05;98654.13;;;2.14;44.02
26083;BME280;13848;49.018;12.078;2024-01-10T09:19:32;98657.53;;;2.44;43.08
26083;BME280;13848;49.018;12.078;2024-01-10T09:21:58;98660.31;;;2.52;43.32
26083;BME280;13848;49.018;12.078;2024-01-10T09:24:24;98659.59;;;3.05;42.60
26083;BME280;13848;49.018;12.078;2024-01-10T09:26:50;98658.94;;;3.38;41.71
26083;BME280;13848;49.018;12.078;2024-01-10T09:29:15;98649.53;;;3.70;40.56
26083;BME280;13848;49.018;12.078;2024-01-10T09:31:43;98663.66;;;2.81;40.69
26083;BME280;13848;49.018;12.078;2024-01-10T09:34:09;98657.66;;;3.86;42.54
26083;BME280;13848;49.018;12.078;2024-01-10T09:36:35;98658.47;;;5.07;39.63
26083;BME280;13848;49.018;12.078;2024-01-10T09:39:01;98658.16;;;4.68;39.51
26083;BME280;13848;49.018;12.078;2024-01-10T09:41:28;98654.78;;;5.00;38.62
26083;BME280;13848;49.018;12.078;2024-01-10T09:43:54;98658.44;;;3.96;39.33
26083;BME280;13848;49.018;12.078;2024-01-10T09:46:20;98653.69;;;5.43;38.35
26083;BME280;13848;49.018;12.078;2024-01-10T09:48:48;98655.25;;;6.66;38.28
26083;BME280;13848;49.018;12.078;2024-01-10T09:51:14;98665.75;;;5.72;36.51
26083;BME280;13848;49.018;12.078;2024-01-10T09:53:44;98668.47;;;5.96;36.30
26083;BME280;13848;49.018;12.078;2024-01-10T09:56:14;98675.13;;;6.33;36.73
26083;BME280;13848;49.018;12.078;2024-01-10T09:58:43;98667.22;;;6.48;38.30
26083;BME280;13848;49.018;12.078;2024-01-10T10:01:09;98660.41;;;6.12;38.06
26083;BME280;13848;49.018;12.078;2024-01-10T10:03:37;98655.34;;;6.50;36.15
26083;BME280;13848;49.018;12.078;2024-01-10T10:06:07;98653.56;;;6.26;36.30
26083;BME280;13848;49.018;12.078;2024-01-10T10:08:33;98652.69;;;6.26;35.78
26083;BME280;13848;49.018;12.078;2024-01-10T10:10:59;98655.72;;;6.23;35.92
26083;BME280;13848;49.018;12.078;2024-01-10T10:13:26;98655.06;;;5.96;34.83
26083;BME280;13848;49.018;12.078;2024-01-10T10:16:00;98645.13;;;6.93;34.25
26083;BME280;13848;49.018;12.078;2024-01-10T10:18:26;98654.03;;;7.16;33.66
26083;BME280;13848;49.018;12.078;2024-01-10T10:21:08;98654.28;;;6.59;34.14
26083;BME280;13848;49.018;12.078;2024-01-10T10:23:34;98669.81;;;3.63;37.16
26083;BME280;13848;49.018;12.078;2024-01-10T10:26:10;98653.84;;;4.07;38.72
26083;BME280;13848;49.018;12.078;2024-01-10T10:28:36;98654.41;;;5.94;36.61
26083;BME280;13848;49.018;12.078;2024-01-10T10:31:02;98652.66;;;6.42;35.29
26083;BME280;13848;49.018;12.078;2024-01-10T10:33:28;98654.00;;;5.32;36.49
26083;BME280;13848;49.018;12.078;2024-01-10T10:35:55;98655.00;;;6.45;35.60
26083;BME280;13848;49.018;12.078;2024-01-10T10:38:23;98640.66;;;7.62;33.04
26083;BME280;13848;49.018;12.078;2024-01-10T10:40:49;98657.75;;;7.07;33.87
26083;BME280;13848;49.018;12.078;2024-01-10T10:43:18;98659.88;;;6.50;34.59
26083;BME280;13848;49.018;12.078;2024-01-10T10:45:48;98644.53;;;6.75;33.45
26083;BME280;13848;49.018;12.078;2024-01-10T10:48:16;98640.16;;;7.36;33.04
26083;BME280;13848;49.018;12.078;2024-01-10T10:50:50;98660.75;;;7.12;34.09
26083;BME280;13848;49.018;12.078;2024-01-10T10:53:18;98642.78;;;6.43;34.89
26083;BME280;13848;49.018;12.078;2024-01-10T10:55:47;98653.59;;;6.65;33.89
26083;BME280;13848;49.018;12.078;2024-01-10T10:58:14;98655.69;;;7.26;33.08
26083;BME280;13848;49.018;12.078;2024-01-10T11:00:40;98655.06;;;6.21;33.89
26083;BME280;13848;49.018;12.078;2024-01-10T11:03:10;98643.75;;;7.51;33.35
26083;BME280;13848;49.018;12.078;2024-01-10T11:05:39;98644.00;;;7.64;32.13
26083;BME280;13848;49.018;12.078;2024-01-10T11:08:07;98643.84;;;7.66;34.03
26083;BME280;13848;49.018;12.078;2024-01-10T11:10:35;98652.22;;;5.65;36.00
26083;BME280;13848;49.018;12.078;2024-01-10T11:13:19;98649.38;;;6.24;35.26
26083;BME280;13848;49.018;12.078;2024-01-10T11:16:02;98648.88;;;8.07;32.98
26083;BME280;13848;49.018;12.078;2024-01-10T11:18:44;98643.34;;;8.97;31.77
26083;BME280;13848;49.018;12.078;2024-01-10T11:21:20;98632.72;;;8.74;30.93
26083;BME280;13848;49.018;12.078;2024-01-10T11:23:49;98647.09;;;6.99;33.83
26083;BME280;13848;49.018;12.078;2024-01-10T11:26:19;98646.63;;;7.27;33.22
26083;BME280;13848;49.018;12.078;2024-01-10T11:28:46;98629.78;;;8.02;33.27
26083;BME280;13848;49.018;12.078;2024-01-10T11:31:13;98629.34;;;8.27;31.84
26083;BME280;13848;49.018;12.078;2024-01-10T11:33:40;98623.22;;;8.93;31.01
26083;BME280;13848;49.018;12.078;2024-01-10T11:36:11;98621.28;;;7.52;32.63
26083;BME280;13848;49.018;12.078;2024-01-10T11:38:41;98625.44;;;9.04;31.61
26083;BME280;13848;49.018;12.078;2024-01-10T11:41:10;98614.19;;;8.64;32.14
26083;BME280;13848;49.018;12.078;2024-01-10T11:43:36;98623.34;;;8.40;32.09
26083;BME280;13848;49.018;12.078;2024-01-10T11:46:05;98613.31;;;8.93;30.95
26083;BME280;13848;49.018;12.078;2024-01-10T11:48:31;98615.25;;;10.06;30.01
26083;BME280;13848;49.018;12.078;2024-01-10T11:50:58;98611.44;;;10.44;30.25
26083;BME280;13848;49.018;12.078;2024-01-10T11:53:51;98605.28;;;12.18;28.63
26083;BME280;13848;49.018;12.078;2024-01-10T11:56:17;98608.38;;;9.76;30.42
26083;BME280;13848;49.018;12.078;2024-01-10T11:58:52;98609.97;;;10.48;28.34
26083;BME280;13848;49.018;12.078;2024-01-10T12:01:20;98606.19;;;10.14;29.50
26083;BME280;13848;49.018;12.078;2024-01-10T12:03:47;98601.44;;;11.46;27.67
26083;BME280;13848;49.018;12.078;2024-01-10T12:06:16;98603.09;;;11.48;27.59
26083;BME280;13848;49.018;12.078;2024-01-10T12:08:42;98606.38;;;11.30;27.95
26083;BME280;13848;49.018;12.078;2024-01-10T12:11:08;98608.31;;;11.56;27.77
26083;BME280;13848;49.018;12.078;2024-01-10T12:13:34;98610.44;;;10.23;28.48
26083;BME280;13848;49.018;12.078;2024-01-10T12:16:00;98613.13;;;10.51;28.83
26083;BME280;13848;49.018;12.078;2024-01-10T12:18:28;98612.09;;;10.93;28.53
26083;BME280;13848;49.018;12.078;2024-01-10T12:20:54;98595.66;;;11.50;27.35
26083;BME280;13848;49.018;12.078;2024-01-10T12:23:19;98592.78;;;11.97;27.45
26083;BME280;13848;49.018;12.078;2024-01-10T12:25:45;98594.84;;;12.22;27.63
26083;BME280;13848;49.018;12.078;2024-01-10T12:28:15;98598.56;;;11.68;28.07
26083;BME280;13848;49.018;12.078;2024-01-10T12:30:41;98598.19;;;12.11;27.26
26083;BME280;13848;49.018;12.078;2024-01-10T12:33:08;98603.53;;;11.44;27.34
26083;BME280;13848;49.018;12.078;2024-01-10T12:35:36;98601.66;;;12.58;26.56
26083;BME280;13848;49.018;12.078;2024-01-10T12:38:02;98609.28;;;10.32;28.20
26083;BME280;13848;49.018;12.078;2024-01-10T12:40:28;98601.81;;;10.34;27.99
26083;BME280;13848;49.018;12.078;2024-01-10T12:43:02;98599.91;;;10.63;28.72
26083;BME280;13848;49.018;12.078;2024-01-10T12:45:27;98586.34;;;10.91;27.76
26083;BME280;13848;49.018;12.078;2024-01-10T12:47:53;98593.22;;;11.00;27.73
26083;BME280;13848;49.018;12.078;2024-01-10T12:50:19;98591.56;;;11.06;28.59